createdAt,value
2022-08-11T00:01:56.175Z,18.44
2022-08-11T00:04:28.136Z,18.35
2022-08-11T00:07:03.852Z,18.31
2022-08-11T00:09:39.518Z,18.25
2022-08-11T00:12:17.365Z,18.20
2022-08-11T00:14:47.614Z,18.16
2022-08-11T00:17:16.316Z,18.12
2022-08-11T00:20:12.862Z,18.10
2022-08-11T00:22:40.135Z,18.06
2022-08-11T00:25:19.606Z,18.02
2022-08-11T00:27:49.027Z,17.98
2022-08-11T00:30:17.213Z,17.95
2022-08-11T00:32:57.163Z,17.91
2022-08-11T00:35:51.367Z,17.87
2022-08-11T00:38:25.209Z,17.80
2022-08-11T00:41:04.947Z,17.72
2022-08-11T00:44:08.174Z,17.63
2022-08-11T00:47:01.978Z,17.53
2022-08-11T00:50:05.667Z,17.44
2022-08-11T00:52:54.314Z,17.37
2022-08-11T00:55:55.526Z,17.31
2022-08-11T00:58:29.804Z,17.23
2022-08-11T01:01:18.171Z,17.17
2022-08-11T01:04:23.210Z,17.09
2022-08-11T01:08:01.440Z,16.99
2022-08-11T01:10:48.510Z,16.89
2022-08-11T01:13:40.323Z,16.80
2022-08-11T01:16:32.502Z,16.72
2022-08-11T01:20:47.806Z,16.66
2022-08-11T01:22:30.446Z,16.56
2022-08-11T01:25:56.760Z,16.46
2022-08-11T01:29:02.389Z,16.34
2022-08-11T01:32:07.926Z,16.24
2022-08-11T01:35:27.003Z,16.15
2022-08-11T01:38:16.546Z,16.06
2022-08-11T01:41:52.306Z,16.00
2022-08-11T01:45:02.983Z,15.91
2022-08-11T01:47:53.381Z,15.84
2022-08-11T01:50:38.415Z,15.78
2022-08-11T01:53:10.983Z,15.74
2022-08-11T01:56:01.079Z,15.70
2022-08-11T01:58:44.150Z,15.66
2022-08-11T02:01:27.687Z,15.62
2022-08-11T02:04:17.367Z,15.58
2022-08-11T02:07:01.073Z,15.54
2022-08-11T02:09:31.566Z,15.48
2022-08-11T02:12:12.438Z,15.43
2022-08-11T02:14:53.647Z,15.40
2022-08-11T02:17:36.449Z,15.34
2022-08-11T02:20:35.368Z,15.31
2022-08-11T02:23:58.752Z,15.24
2022-08-11T02:27:08.877Z,15.20
2022-08-11T02:30:12.510Z,15.14
2022-08-11T02:33:09.918Z,15.09
2022-08-11T02:35:51.952Z,15.07
2022-08-11T02:38:48.473Z,15.03
2022-08-11T02:41:51.469Z,15.00
2022-08-11T02:44:28.830Z,14.97
2022-08-11T02:47:24.448Z,14.93
2022-08-11T02:50:26.670Z,14.90
2022-08-11T02:53:32.298Z,14.87
2022-08-11T02:56:22.978Z,14.85
2022-08-11T02:59:36.549Z,14.82
2022-08-11T03:02:31.613Z,14.81
2022-08-11T03:05:17.429Z,14.79
2022-08-11T03:07:52.947Z,14.73
2022-08-11T03:10:32.824Z,14.69
2022-08-11T03:13:35.509Z,14.67
2022-08-11T03:16:48.426Z,14.61
2022-08-11T03:19:35.982Z,14.57
2022-08-11T03:22:14.359Z,14.53
2022-08-11T03:24:59.227Z,14.52
2022-08-11T03:28:03.122Z,14.49
2022-08-11T03:31:01.216Z,14.43
2022-08-11T03:33:52.466Z,14.38
2022-08-11T03:36:33.312Z,14.30
2022-08-11T03:39:23.327Z,14.28
2022-08-11T03:42:30.306Z,14.24
2022-08-11T03:45:14.402Z,14.23
2022-08-11T03:48:00.495Z,14.23
2022-08-11T03:51:03.171Z,14.23
2022-08-11T03:53:54.100Z,14.22
2022-08-11T03:57:00.321Z,14.21
2022-08-11T03:59:34.977Z,14.19
2022-08-11T04:02:26.809Z,14.19
2022-08-11T04:05:25.543Z,14.20
2022-08-11T04:08:34.383Z,14.21
2022-08-11T04:11:35.398Z,14.23
2022-08-11T04:14:44.851Z,14.28
2022-08-11T04:17:36.982Z,14.31
2022-08-11T04:20:13.927Z,14.33
2022-08-11T04:22:55.057Z,14.34
2022-08-11T04:25:57.807Z,14.38
2022-08-11T04:28:43.101Z,14.42
2022-08-11T04:31:44.195Z,14.46
2022-08-11T04:34:37.064Z,14.52
2022-08-11T04:37:34.739Z,14.58
2022-08-11T04:40:03.129Z,14.63
2022-08-11T04:43:22.036Z,14.68
2022-08-11T04:46:27.702Z,14.75
2022-08-11T04:49:39.642Z,14.81
2022-08-11T04:53:01.615Z,14.88
2022-08-11T04:56:03.465Z,14.92
2022-08-11T04:59:28.368Z,14.98
2022-08-11T05:02:24.917Z,15.05
2022-08-11T05:05:22.074Z,15.10
2022-08-11T05:08:07.154Z,15.17
2022-08-11T05:10:58.237Z,15.25
2022-08-11T05:13:55.884Z,15.34
2022-08-11T05:17:00.253Z,15.43
2022-08-11T05:19:48.569Z,15.53
2022-08-11T05:22:39.011Z,15.59
2022-08-11T05:26:43.865Z,15.68
2022-08-11T05:29:19.942Z,15.78
2022-08-11T05:32:15.471Z,15.87
2022-08-11T05:34:54.860Z,15.97
2022-08-11T05:37:35.414Z,16.06
2022-08-11T05:40:28.416Z,16.18
2022-08-11T05:43:20.086Z,16.29
2022-08-11T05:46:20.892Z,16.39
2022-08-11T05:49:08.541Z,16.50
2022-08-11T05:52:05.584Z,16.59
2022-08-11T05:55:05.399Z,16.67
2022-08-11T05:57:50.091Z,16.75
2022-08-11T06:00:29.440Z,16.83
2022-08-11T06:03:10.658Z,16.90
2022-08-11T06:05:46.673Z,16.97
2022-08-11T06:08:27.316Z,17.07
2022-08-11T06:11:00.975Z,17.14
2022-08-11T06:13:29.498Z,17.23
2022-08-11T06:16:00.673Z,17.31
2022-08-11T06:18:31.952Z,17.40
2022-08-11T06:21:01.117Z,17.47
2022-08-11T06:23:36.202Z,17.56
2022-08-11T06:26:13.891Z,17.64
2022-08-11T06:28:46.154Z,17.72
2022-08-11T06:31:17.689Z,17.79
2022-08-11T06:34:11.594Z,17.88
2022-08-11T06:37:00.147Z,17.99
2022-08-11T06:39:51.071Z,18.08
2022-08-11T06:42:37.015Z,18.18
2022-08-11T06:45:29.560Z,18.28
2022-08-11T06:48:00.947Z,18.41
2022-08-11T06:50:49.420Z,18.50
2022-08-11T06:53:19.751Z,18.61
2022-08-11T06:56:09.516Z,18.71
2022-08-11T06:59:00.195Z,18.83
2022-08-11T07:01:49.436Z,18.96
2022-08-11T07:04:35.251Z,19.08
2022-08-11T07:07:48.503Z,19.18
2022-08-11T07:10:41.424Z,19.28
2022-08-11T07:13:44.076Z,19.38
2022-08-11T07:16:26.690Z,19.51
2022-08-11T07:19:36.481Z,19.60
2022-08-11T07:22:26.014Z,19.71
2022-08-11T07:25:34.285Z,19.80
2022-08-11T07:28:45.000Z,19.90
2022-08-11T07:31:18.097Z,20.00
2022-08-11T07:34:06.375Z,20.08
2022-08-11T07:36:41.770Z,20.21
2022-08-11T07:39:16.762Z,20.31
2022-08-11T07:41:47.308Z,20.40
2022-08-11T07:44:17.264Z,20.48
2022-08-11T07:47:07.541Z,20.58
2022-08-11T07:49:56.157Z,20.68
2022-08-11T07:52:32.534Z,20.78
2022-08-11T07:55:08.425Z,20.88
2022-08-11T07:58:16.771Z,20.97
2022-08-11T08:01:21.267Z,21.06
2022-08-11T08:04:10.342Z,21.16
2022-08-11T08:07:00.251Z,21.26
2022-08-11T08:09:53.537Z,21.36
2022-08-11T08:12:42.547Z,21.44
2022-08-11T08:15:36.762Z,21.51
2022-08-11T08:18:20.641Z,21.61
2022-08-11T08:21:14.410Z,21.69
2022-08-11T08:23:53.692Z,21.78
2022-08-11T08:26:48.246Z,21.88
2022-08-11T08:29:39.038Z,21.98
2022-08-11T08:32:08.596Z,22.07
2022-08-11T08:34:38.392Z,22.14
2022-08-11T08:37:15.902Z,22.21
2022-08-11T08:39:56.559Z,22.26
2022-08-11T08:42:27.575Z,22.34
2022-08-11T08:45:11.189Z,22.43
2022-08-11T08:47:43.664Z,22.61
2022-08-11T08:50:16.784Z,22.79
2022-08-11T08:52:54.594Z,22.97
2022-08-11T08:55:23.631Z,23.14
2022-08-11T08:57:54.814Z,23.28
2022-08-11T09:00:25.166Z,23.40
2022-08-11T09:02:53.257Z,23.45
2022-08-11T09:05:21.552Z,23.59
2022-08-11T09:07:54.588Z,23.69
2022-08-11T09:10:23.308Z,23.76
2022-08-11T09:12:51.979Z,23.82
2022-08-11T09:15:22.657Z,23.88
2022-08-11T09:17:58.740Z,23.91
2022-08-11T09:20:29.476Z,23.98
2022-08-11T09:26:30.981Z,24.39
2022-08-11T09:29:00.500Z,24.51
2022-08-11T09:31:39.400Z,24.57
2022-08-11T09:34:10.479Z,24.72
2022-08-11T09:37:00.274Z,24.86
2022-08-11T09:39:49.101Z,25.02
2022-08-11T09:42:23.512Z,25.14
2022-08-11T09:44:53.486Z,25.28
2022-08-11T09:47:26.504Z,25.46
2022-08-11T09:50:00.909Z,25.65
2022-08-11T09:52:33.195Z,25.89
2022-08-11T09:55:02.678Z,26.15
2022-08-11T09:57:49.164Z,26.36
2022-08-11T10:00:17.444Z,26.56
2022-08-11T10:02:48.861Z,26.74
2022-08-11T10:05:38.429Z,26.98
2022-08-11T10:08:09.088Z,27.17
2022-08-11T10:10:39.808Z,27.34
2022-08-11T10:14:31.320Z,27.50
2022-08-11T10:16:15.690Z,27.63
2022-08-11T10:18:53.812Z,27.72
2022-08-11T10:21:29.377Z,27.74
2022-08-11T10:24:18.576Z,27.79
2022-08-11T10:26:53.852Z,27.81
2022-08-11T10:29:44.276Z,27.79
2022-08-11T10:32:49.297Z,27.83
2022-08-11T10:35:27.743Z,27.93
2022-08-11T10:38:06.656Z,28.02
2022-08-11T10:40:40.438Z,28.06
2022-08-11T10:44:01.224Z,28.05
2022-08-11T10:46:34.258Z,28.01
2022-08-11T10:49:03.752Z,27.99
2022-08-11T10:51:53.899Z,27.91
2022-08-11T10:54:44.665Z,27.85
2022-08-11T10:57:34.437Z,27.76
2022-08-11T11:00:07.202Z,27.67
2022-08-11T11:02:35.621Z,27.60
2022-08-11T11:05:25.237Z,27.57
2022-08-11T11:08:26.420Z,27.61
2022-08-11T11:10:56.681Z,27.65
2022-08-11T11:13:55.314Z,27.70
2022-08-11T11:16:46.846Z,27.69
2022-08-11T11:19:19.347Z,27.60
2022-08-11T11:21:54.220Z,27.58
2022-08-11T11:24:45.929Z,27.55
2022-08-11T11:27:47.753Z,27.59
2022-08-11T11:30:21.216Z,27.72
2022-08-11T11:33:06.979Z,27.75
2022-08-11T11:35:50.052Z,27.63
2022-08-11T11:38:19.432Z,27.68
2022-08-11T11:41:07.456Z,27.75
2022-08-11T11:43:41.413Z,27.71
2022-08-11T11:46:10.868Z,27.76
2022-08-11T11:48:40.500Z,27.88
2022-08-11T11:51:16.746Z,27.95
2022-08-11T11:53:47.099Z,27.86
2022-08-11T11:56:17.553Z,27.74
2022-08-11T11:59:05.741Z,27.68
2022-08-11T12:01:35.040Z,27.95
2022-08-11T12:04:07.263Z,28.27
2022-08-11T12:06:35.715Z,28.55
2022-08-11T12:09:06.586Z,28.73
2022-08-11T12:11:53.348Z,28.47
2022-08-11T12:14:21.783Z,28.22
2022-08-11T12:16:50.786Z,28.10
2022-08-11T12:19:24.766Z,28.28
2022-08-11T12:22:14.701Z,28.52
2022-08-11T12:25:09.467Z,28.88
2022-08-11T12:27:40.765Z,29.12
2022-08-11T12:30:09.419Z,29.34
2022-08-11T12:32:45.821Z,29.60
2022-08-11T12:35:22.516Z,29.59
2022-08-11T12:38:03.730Z,29.68
2022-08-11T12:41:15.762Z,30.06
2022-08-11T12:44:08.128Z,30.38
2022-08-11T12:46:45.824Z,30.69
2022-08-11T12:49:41.875Z,30.93
2022-08-11T12:52:21.934Z,31.24
2022-08-11T12:55:36.526Z,31.51
2022-08-11T12:58:17.307Z,32.03
2022-08-11T13:01:04.744Z,32.25
2022-08-11T13:03:56.575Z,31.89
2022-08-11T13:06:27.092Z,31.34
2022-08-11T13:09:01.065Z,30.86
2022-08-11T13:11:56.777Z,30.45
2022-08-11T13:14:28.034Z,30.05
2022-08-11T13:17:14.861Z,29.72
2022-08-11T13:19:48.854Z,29.32
2022-08-11T13:22:20.734Z,29.20
2022-08-11T13:24:56.792Z,29.35
2022-08-11T13:27:25.831Z,29.51
2022-08-11T13:30:14.745Z,29.88
2022-08-11T13:32:45.986Z,30.43
2022-08-11T13:35:18.562Z,30.77
2022-08-11T13:38:19.782Z,31.15
2022-08-11T13:40:54.834Z,31.56
2022-08-11T13:43:26.494Z,31.91
2022-08-11T13:46:15.274Z,32.34
2022-08-11T13:48:45.727Z,32.79
2022-08-11T13:51:41.305Z,33.17
2022-08-11T13:54:48.608Z,33.45
2022-08-11T13:58:08.959Z,33.58
2022-08-11T14:00:25.064Z,33.66
2022-08-11T14:02:59.437Z,33.85
2022-08-11T14:06:10.322Z,34.06
2022-08-11T14:08:47.549Z,34.29
2022-08-11T14:12:21.364Z,34.39
2022-08-11T14:15:14.411Z,34.64
2022-08-11T14:21:34.905Z,35.26
2022-08-11T14:24:12.962Z,35.56
2022-08-11T14:26:55.311Z,35.44
2022-08-11T14:29:46.332Z,34.96
2022-08-11T14:32:52.757Z,34.34
2022-08-11T14:35:25.579Z,33.74
2022-08-11T14:37:54.202Z,33.54
2022-08-11T14:47:36.469Z,34.02
2022-08-11T14:50:34.417Z,34.42
2022-08-11T14:53:32.461Z,34.88
2022-08-11T14:56:32.734Z,35.19
2022-08-11T14:59:26.866Z,35.46
2022-08-11T15:02:17.507Z,35.62
2022-08-11T15:05:13.215Z,36.23
2022-08-11T15:07:42.409Z,36.91
2022-08-11T15:10:32.643Z,37.07
2022-08-11T15:17:29.401Z,36.79
2022-08-11T15:20:54.189Z,36.52
2022-08-11T15:23:59.409Z,36.12
2022-08-11T15:26:59.370Z,35.85
2022-08-11T15:29:51.634Z,35.83
2022-08-11T15:32:23.805Z,35.76
2022-08-11T15:35:19.256Z,35.91
2022-08-11T15:37:52.856Z,36.10
2022-08-11T15:40:48.027Z,36.29
2022-08-11T15:43:56.520Z,36.41
2022-08-11T15:46:33.951Z,36.82
2022-08-11T15:49:09.659Z,37.18
2022-08-11T15:51:40.488Z,37.32
2022-08-11T15:54:13.129Z,37.26
2022-08-11T15:56:46.089Z,37.17
2022-08-11T15:59:41.683Z,37.19
2022-08-11T16:02:35.799Z,37.01
2022-08-11T16:05:45.294Z,36.86
2022-08-11T16:08:05.870Z,36.68
2022-08-11T16:10:35.699Z,36.51
2022-08-11T16:13:07.040Z,36.47
2022-08-11T16:15:59.228Z,36.47
2022-08-11T16:18:44.331Z,36.44
2022-08-11T16:21:33.699Z,36.52
2022-08-11T16:24:09.269Z,36.79
2022-08-11T16:27:07.692Z,36.84
2022-08-11T16:29:48.604Z,36.88
2022-08-11T16:32:22.106Z,37.08
2022-08-11T16:35:16.220Z,37.00
2022-08-11T16:38:04.968Z,37.31
2022-08-11T16:40:34.633Z,37.46
2022-08-11T16:43:26.763Z,37.47
2022-08-11T16:46:15.628Z,37.40
2022-08-11T16:48:48.195Z,37.34
2022-08-11T16:51:16.282Z,37.30
2022-08-11T16:54:03.607Z,37.16
2022-08-11T16:57:18.966Z,37.07
2022-08-11T16:59:51.945Z,36.82
2022-08-11T17:02:44.427Z,36.57
2022-08-11T17:05:38.514Z,36.23
2022-08-11T17:08:57.592Z,36.14
2022-08-11T17:11:52.504Z,35.93
2022-08-11T17:14:35.117Z,35.77
2022-08-11T17:17:13.806Z,35.61
2022-08-11T17:20:38.545Z,35.42
2022-08-11T17:22:59.639Z,35.21
2022-08-11T17:25:28.611Z,34.76
2022-08-11T17:27:57.074Z,34.33
2022-08-11T17:30:47.367Z,33.88
2022-08-11T17:33:35.635Z,33.36
2022-08-11T17:36:03.798Z,32.94
2022-08-11T17:38:34.225Z,32.57
2022-08-11T17:41:23.269Z,32.35
2022-08-11T17:44:12.512Z,32.16
2022-08-11T17:47:05.711Z,31.85
2022-08-11T17:49:39.374Z,31.47
2022-08-11T17:52:26.538Z,31.19
2022-08-11T17:55:17.587Z,30.97
2022-08-11T17:58:25.797Z,30.57
2022-08-11T18:00:56.114Z,30.30
2022-08-11T18:03:39.916Z,29.89
2022-08-11T18:06:14.273Z,29.38
2022-08-11T18:09:05.147Z,28.93
2022-08-11T18:12:11.395Z,28.45
2022-08-11T18:15:05.391Z,27.89
2022-08-11T18:17:53.998Z,27.44
2022-08-11T18:20:42.304Z,27.05
2022-08-11T18:23:45.820Z,26.69
2022-08-11T18:26:38.407Z,26.33
2022-08-11T18:29:27.342Z,26.03
2022-08-11T18:32:20.879Z,25.68
2022-08-11T18:35:12.480Z,25.39
2022-08-11T18:38:05.690Z,25.20
2022-08-11T18:40:54.896Z,24.99
2022-08-11T18:43:44.940Z,24.80
2022-08-11T18:46:35.092Z,24.65
2022-08-11T18:50:02.100Z,24.51
2022-08-11T18:52:45.102Z,24.31
2022-08-11T18:55:36.079Z,24.17
2022-08-11T18:58:27.621Z,24.02
2022-08-11T19:01:19.775Z,23.88
2022-08-11T19:04:11.672Z,23.76
2022-08-11T19:07:07.786Z,23.67
2022-08-11T19:09:56.959Z,23.54
2022-08-11T19:12:55.389Z,23.46
2022-08-11T19:15:43.010Z,23.40
2022-08-11T19:18:37.006Z,23.32
2022-08-11T19:21:25.840Z,23.24
2022-08-11T19:24:16.336Z,23.14
2022-08-11T19:27:04.569Z,23.09
2022-08-11T19:30:06.956Z,23.03
2022-08-11T19:33:01.219Z,22.94
2022-08-11T19:35:49.265Z,22.86
2022-08-11T19:38:37.294Z,22.78
2022-08-11T19:41:56.467Z,22.72
2022-08-11T19:44:34.654Z,22.67
2022-08-11T19:47:21.635Z,22.59
2022-08-11T19:50:10.626Z,22.52
2022-08-11T19:52:58.481Z,22.45
2022-08-11T19:55:45.826Z,22.37
2022-08-11T19:58:35.517Z,22.29
2022-08-11T20:01:24.092Z,22.20
2022-08-11T20:04:11.523Z,22.11
2022-08-11T20:06:59.548Z,22.01
2022-08-11T20:10:06.060Z,21.88
2022-08-11T20:12:57.927Z,21.75
2022-08-11T20:15:46.206Z,21.66
2022-08-11T20:18:34.327Z,21.56
2022-08-11T20:21:26.151Z,21.44
2022-08-11T20:24:21.183Z,21.32
2022-08-11T20:27:18.582Z,21.21
2022-08-11T20:30:15.138Z,21.09
2022-08-11T20:33:03.352Z,20.98
2022-08-11T20:35:51.825Z,20.88
2022-08-11T20:38:41.566Z,20.78
2022-08-11T20:41:30.735Z,20.70
2022-08-11T20:44:18.195Z,20.63
2022-08-11T20:47:13.205Z,20.55
2022-08-11T20:50:03.090Z,20.49
2022-08-11T20:52:52.216Z,20.41
2022-08-11T20:55:51.634Z,20.34
2022-08-11T20:59:13.431Z,20.25
2022-08-11T21:01:51.989Z,20.16
2022-08-11T21:04:53.966Z,20.09
2022-08-11T21:07:55.610Z,20.02
2022-08-11T21:10:51.741Z,19.96
2022-08-11T21:13:45.962Z,19.91
2022-08-11T21:16:38.373Z,19.84
2022-08-11T21:19:54.825Z,19.79
2022-08-11T21:22:59.090Z,19.70
2022-08-11T21:26:05.720Z,19.63
2022-08-11T21:28:58.947Z,19.56
2022-08-11T21:31:50.219Z,19.50
2022-08-11T21:34:40.796Z,19.43
2022-08-11T21:37:29.271Z,19.40
2022-08-11T21:40:20.657Z,19.35
2022-08-11T21:43:10.603Z,19.31
2022-08-11T21:45:58.637Z,19.25
2022-08-11T21:48:48.329Z,19.17
2022-08-11T21:51:35.337Z,19.11
2022-08-11T21:54:23.542Z,19.06
2022-08-11T21:57:11.562Z,18.99
2022-08-11T22:00:12.771Z,18.93
2022-08-11T22:03:03.510Z,18.84
2022-08-11T22:05:51.975Z,18.74
2022-08-11T22:08:39.639Z,18.65
2022-08-11T22:11:32.478Z,18.56
2022-08-11T22:14:24.115Z,18.49
2022-08-11T22:17:10.398Z,18.44
2022-08-11T22:20:00.635Z,18.38
2022-08-11T22:22:52.998Z,18.31
2022-08-11T22:25:53.724Z,18.24
2022-08-11T22:28:42.486Z,18.15
2022-08-11T22:31:30.203Z,18.10
2022-08-11T22:34:17.453Z,18.03
2022-08-11T22:37:05.884Z,17.95
2022-08-11T22:40:01.761Z,17.89
2022-08-11T22:42:52.540Z,17.80
2022-08-11T22:45:39.807Z,17.75
2022-08-11T22:48:29.141Z,17.70
2022-08-11T22:51:18.751Z,17.66
2022-08-11T22:54:08.955Z,17.62
2022-08-11T22:56:59.131Z,17.55
2022-08-11T22:59:47.375Z,17.53
2022-08-11T23:02:34.937Z,17.48
2022-08-11T23:05:24.635Z,17.46
2022-08-11T23:08:11.764Z,17.44
2022-08-11T23:11:00.870Z,17.42
2022-08-11T23:13:54.503Z,17.39
2022-08-11T23:16:43.999Z,17.37
2022-08-11T23:20:04.556Z,17.35
2022-08-11T23:22:50.152Z,17.31
2022-08-11T23:25:37.086Z,17.26
2022-08-11T23:28:26.518Z,17.22
2022-08-11T23:31:16.908Z,17.15
2022-08-11T23:34:09.162Z,17.07
2022-08-11T23:37:17.071Z,16.97
2022-08-11T23:40:04.169Z,16.91
2022-08-11T23:42:59.138Z,16.84
2022-08-11T23:45:47.889Z,16.79
2022-08-11T23:48:37.691Z,16.72
2022-08-11T23:51:26.121Z,16.66
2022-08-11T23:54:32.686Z,16.59
2022-08-11T23:57:24.531Z,16.52
